Santa Clara, Cuba
Current Conditions -  °F | °C
As of 9:31 AM on Saturday 25 Oct 2014 (Local Time) from MUSC Reporting Station
Light Rain Light Rain  
Wind Chill: 73°   Ceiling: 1200
Heat Index: 73°   Visibility: 3mi
Dew Point: 73°   Wind: 3mph
Humidity: 100%   Direction: 40°NE
Pressure: 29.88"   Gusts: NA
Location:  22.41°N, 79.97°W
Report Text: MUSC 251331Z 04003KT 010V070 5000 -RA BKN012 23/23 Q1012
Loading
Personal Weather Stations






























Interactive Weather Map
Tropical Storm Tracking
New forecast layout! Learn more

10-Day Weather Forecast

Advertisements
Track Severe Weather on mobile